Lepus — DSQX4 — position and weather

sailwx.info

Track history (hours):
 
Tides and Currents Weather Stations Pressure Air Temp Water Temp Dewpoint Dewpoint Depression Visibility Wind Speed Wind Dir Waves Ship Positions

Lepus

Last reported at 2018-Jul-01 14:18 UTC. Time now 2018-Jul-16 14:42 UTC.
Position N 34°26' E 134°25'.
Warning: this ship's position is 15 days out of date.

Length 109 m; draft 6.2 m.

Type: Cargo ship. MMSI: 441745000.

Date/timePositionNaut miles runAvg speedWind from/ knotsBaromVisibWave heightAir tempDewpointWater temp
2018-Jul-01 14:18N 34°26' E 134°25'411.5
2018-Jul-01 13:59N 34°27' E 134°29'611.6
2018-Jul-01 13:30N 34°30' E 134°35'712.0
2018-Jul-01 12:54N 34°32' E 134°44'513.4
2018-Jul-01 12:30N 34°34' E 134°50'714.2
2018-Jul-01 12:00N 34°37' E 134°57'713.0
2018-Jul-01 11:30N 34°35' E 135°05'612.6
2018-Jul-01 11:01N 34°29' E 135°04'612.2
2018-Jul-01 10:31N 34°23' E 135°02'612.2
2018-Jul-01 10:01N 34°18' E 134°59'611.7
2018-Jul-01 09:30N 34°12' E 134°60'611.8
2018-Jul-01 09:00N 34°06' E 135°00'612.2
2018-Jul-01 08:30N 33°60' E 135°00'611.9
2018-Jul-01 08:01N 33°54' E 135°01'243 9.6
2018-Jun-30 06:50N 34°48' E 139°47'  
Track history (hours):
 
Tides and Currents Weather Stations Pressure Air Temp Water Temp Dewpoint Dewpoint Depression Visibility Wind Speed Wind Dir Waves Ship Positions

Lepus

Last reported at 2018-Jul-01 14:18 UTC. Time now 2018-Jul-16 14:42 UTC.
Position N 34°26' E 134°25'.
Warning: this ship's position is 15 days out of date.

Length 109 m; draft 6.2 m.

Type: Cargo ship. MMSI: 441745000.

Date/timePositionNaut miles runAvg speedWind from/ knotsBaromVisibWave heightAir tempDewpointWater temp
2018-Jul-01 14:18N 34°26' E 134°25'411.5
2018-Jul-01 13:59N 34°27' E 134°29'611.6
2018-Jul-01 13:30N 34°30' E 134°35'712.0
2018-Jul-01 12:54N 34°32' E 134°44'513.4
2018-Jul-01 12:30N 34°34' E 134°50'714.2
2018-Jul-01 12:00N 34°37' E 134°57'713.0
2018-Jul-01 11:30N 34°35' E 135°05'612.6
2018-Jul-01 11:01N 34°29' E 135°04'612.2
2018-Jul-01 10:31N 34°23' E 135°02'612.2
2018-Jul-01 10:01N 34°18' E 134°59'611.7
2018-Jul-01 09:30N 34°12' E 134°60'611.8
2018-Jul-01 09:00N 34°06' E 135°00'612.2
2018-Jul-01 08:30N 33°60' E 135°00'611.9
2018-Jul-01 08:01N 33°54' E 135°01'243 9.6
2018-Jun-30 06:50N 34°48' E 139°47'  

Dump ship's entire track history